^^
Station Historical Data
Daily Summary for January 6, 2018 Units:  English    Metric   Both
« Previous Day
Next Day »
Daily Weekly Monthly Yearly Custom
  High: Low: Average:
Temperature: TemperatureF °F 37.0 °F 45.8 °F
Dew Point: DewpointF °F 17.2 °F 26.1 °F
Humidity: Humidity% 24% 49%
Wind Speed: WindSpeedMPHmph 0.0mph 0mph
Wind Gust: WindSpeedGustMPHmph - -
Wind- - North
Pressure: PressureIn in 30.37 in -
Precipitation: 0.00 in    
Historical Graphs
 
 
Tabular Data for January 6, 2018
Time Temperature Dew Point Pressure Wind Wind Speed Wind Gust Humidity Rainfall Rate (Hourly) solar Conditions
TemperatureF °F DewpointF °F PressureIn in Calm     Humidity% HourlyPrecipIn in SolarRadiationWatts/m^2 W/m2 Conditions
00:00 45.0 °F 25.9 °F 30.40 in Calm     47% 0.00 in 0.0 W/m2 CLR
00:30 41.0 °F 28.6 °F 30.39 in Calm     61% 0.00 in 0.0 W/m2 CLR
00:45 41.0 °F 28.6 °F 30.39 in Calm     61% 0.00 in 0.0 W/m2 CLR
01:00 41.0 °F 28.6 °F 30.39 in Calm     61% 0.00 in 0.0 W/m2 CLR
01:10 41.0 °F 29.7 °F 30.37 in Calm     64% 0.00 in 0.0 W/m2 CLR
01:15 41.0 °F 29.7 °F 30.37 in Calm     64% 0.00 in 0.0 W/m2 CLR
01:35 41.0 °F 29.7 °F 30.37 in Calm     64% 0.00 in 0.0 W/m2 CLR
01:40 41.0 °F 29.7 °F 30.37 in Calm     64% 0.00 in 0.0 W/m2 CLR
01:45 41.0 °F 29.7 °F 30.37 in Calm     64% 0.00 in 0.0 W/m2 CLR
01:55 41.0 °F 29.7 °F 30.37 in Calm     64% 0.00 in 0.0 W/m2 CLR
02:05 39.0 °F 29.7 °F 30.37 in Calm     69% 0.00 in 0.0 W/m2 CLR
02:10 39.0 °F 29.7 °F 30.37 in Calm     69% 0.00 in 0.0 W/m2 CLR
02:15 39.0 °F 29.7 °F 30.37 in Calm     69% 0.00 in 0.0 W/m2 CLR
02:25 39.0 °F 29.7 °F 30.37 in Calm     69% 0.00 in 0.0 W/m2 CLR
02:30 39.0 °F 29.7 °F 30.37 in Calm     69% 0.00 in 0.0 W/m2 CLR
02:50 39.0 °F 29.7 °F 30.37 in Calm     69% 0.00 in 0.0 W/m2 CLR
02:55 39.0 °F 29.7 °F 30.37 in Calm     69% 0.00 in 0.0 W/m2 CLR
03:00 39.0 °F 29.7 °F 30.37 in Calm     69% 0.00 in 0.0 W/m2 CLR
03:15 39.9 °F 25.9 °F 30.38 in Calm     57% 0.00 in 0.0 W/m2 CLR
03:25 39.9 °F 25.9 °F 30.38 in Calm     57% 0.00 in 0.0 W/m2 CLR
03:30 39.9 °F 25.9 °F 30.38 in Calm     57% 0.00 in 0.0 W/m2 CLR
03:40 39.9 °F 25.9 °F 30.38 in Calm     57% 0.00 in 0.0 W/m2 CLR
03:50 39.9 °F 25.9 °F 30.38 in Calm     57% 0.00 in 0.0 W/m2 CLR
04:00 39.9 °F 25.9 °F 30.38 in Calm     57% 0.00 in 0.0 W/m2 CLR
04:20 39.9 °F 25.9 °F 30.38 in Calm     57% 0.00 in 0.0 W/m2 CLR
04:30 39.9 °F 25.9 °F 30.38 in Calm     57% 0.00 in 0.0 W/m2 CLR
04:40 39.9 °F 25.9 °F 30.38 in Calm     57% 0.00 in 0.0 W/m2 CLR
04:50 39.9 °F 25.9 °F 30.38 in Calm     57% 0.00 in 0.0 W/m2 CLR
05:00 39.9 °F 25.9 °F 30.38 in Calm     57% 0.00 in 0.0 W/m2 CLR
05:10 37.9 °F 28.7 °F 30.39 in Calm     69% 0.00 in 0.0 W/m2 CLR
05:15 37.9 °F 28.7 °F 30.39 in Calm     69% 0.00 in 0.0 W/m2 CLR
05:30 37.9 °F 28.7 °F 30.39 in Calm     69% 0.00 in 0.0 W/m2 CLR
05:40 37.9 °F 28.7 °F 30.39 in Calm     69% 0.00 in 0.0 W/m2 CLR
05:45 37.9 °F 28.7 °F 30.39 in Calm     69% 0.00 in 0.0 W/m2 CLR
05:55 37.9 °F 28.7 °F 30.39 in Calm     69% 0.00 in 0.0 W/m2 CLR
06:00 37.9 °F 28.7 °F 30.39 in Calm     69% 0.00 in 0.0 W/m2 CLR
06:20 39.0 °F 27.9 °F 30.40 in Calm     64% 0.00 in 0.0 W/m2 CLR
06:25 39.0 °F 27.9 °F 30.40 in Calm     64% 0.00 in 0.0 W/m2 CLR
06:30 39.0 °F 27.9 °F 30.40 in Calm     64% 0.00 in 0.0 W/m2 CLR
06:50 39.0 °F 27.9 °F 30.40 in Calm     64% 0.00 in 0.0 W/m2 CLR
07:00 39.0 °F 27.9 °F 30.40 in Calm     64% 0.00 in 0.0 W/m2 CLR
07:15 37.0 °F 28.8 °F 30.40 in Calm     72% 0.00 in 0.0 W/m2 CLR
07:40 37.0 °F 28.8 °F 30.40 in Calm     72% 0.00 in 0.0 W/m2 CLR
07:50 37.0 °F 28.8 °F 30.40 in Calm     72% 0.00 in 0.0 W/m2 CLR
08:05 39.0 °F 29.7 °F 30.41 in Calm     69% 0.00 in 0.0 W/m2 CLR
08:10 39.0 °F 29.7 °F 30.41 in Calm     69% 0.00 in 0.0 W/m2 CLR
08:15 39.0 °F 29.7 °F 30.41 in Calm     69% 0.00 in 0.0 W/m2 CLR
08:40 39.0 °F 29.7 °F 30.41 in Calm     69% 0.00 in 0.0 W/m2 CLR
08:55 39.0 °F 29.7 °F 30.41 in Calm     69% 0.00 in 0.0 W/m2 CLR
09:00 39.0 °F 29.7 °F 30.41 in Calm     69% 0.00 in 0.0 W/m2 CLR
09:15 42.1 °F 24.8 °F 30.43 in Calm     50% 0.00 in 0.0 W/m2 CLR
09:20 42.1 °F 24.8 °F 30.43 in Calm     50% 0.00 in 0.0 W/m2 CLR
09:30 42.1 °F 24.8 °F 30.43 in Calm     50% 0.00 in 0.0 W/m2 CLR
09:40 42.1 °F 24.8 °F 30.43 in Calm     50% 0.00 in 0.0 W/m2 CLR
09:50 42.1 °F 24.8 °F 30.43 in Calm     50% 0.00 in 0.0 W/m2 CLR
10:00 42.1 °F 24.8 °F 30.43 in Calm     50% 0.00 in 0.0 W/m2 CLR
10:10 46.9 °F 19.3 °F 30.45 in Calm     33% 0.00 in 0.0 W/m2 CLR
10:25 46.9 °F 19.3 °F 30.45 in Calm     33% 0.00 in 0.0 W/m2 CLR
10:40 46.9 °F 19.3 °F 30.45 in Calm     33% 0.00 in 0.0 W/m2 CLR
10:50 46.9 °F 19.3 °F 30.45 in Calm     33% 0.00 in 0.0 W/m2 CLR
10:55 46.9 °F 19.3 °F 30.45 in Calm     33% 0.00 in 0.0 W/m2 CLR
11:05 50.0 °F 17.3 °F 30.44 in Calm     27% 0.00 in 0.0 W/m2 CLR
11:10 50.0 °F 17.3 °F 30.44 in Calm     27% 0.00 in 0.0 W/m2 CLR
11:15 50.0 °F 17.3 °F 30.44 in Calm     27% 0.00 in 0.0 W/m2 CLR
11:25 50.0 °F 17.3 °F 30.44 in Calm     27% 0.00 in 0.0 W/m2 CLR
11:35 50.0 °F 17.3 °F 30.44 in Calm     27% 0.00 in 0.0 W/m2 CLR
11:50 50.0 °F 17.3 °F 30.44 in Calm     27% 0.00 in 0.0 W/m2 CLR
12:00 50.0 °F 17.3 °F 30.44 in Calm     27% 0.00 in 0.0 W/m2 CLR
12:10 53.1 °F 17.2 °F 30.42 in Calm     24% 0.00 in 0.0 W/m2 CLR
12:15 53.1 °F 17.2 °F 30.42 in Calm     24% 0.00 in 0.0 W/m2 CLR
12:25 53.1 °F 17.2 °F 30.42 in Calm     24% 0.00 in 0.0 W/m2 CLR
12:30 53.1 °F 17.2 °F 30.42 in Calm     24% 0.00 in 0.0 W/m2 CLR
12:40 53.1 °F 17.2 °F 30.42 in Calm     24% 0.00 in 0.0 W/m2 CLR
13:05 55.0 °F 20.7 °F 30.39 in Calm     26% 0.00 in 0.0 W/m2 CLR
13:15 55.0 °F 20.7 °F 30.39 in Calm     26% 0.00 in 0.0 W/m2 CLR
13:25 55.0 °F 20.7 °F 30.39 in Calm     26% 0.00 in 0.0 W/m2 CLR
13:30 55.0 °F 20.7 °F 30.39 in Calm     26% 0.00 in 0.0 W/m2 CLR
13:40 55.0 °F 20.7 °F 30.39 in Calm     26% 0.00 in 0.0 W/m2 CLR
13:45 55.0 °F 20.7 °F 30.39 in Calm     26% 0.00 in 0.0 W/m2 CLR
13:55 55.0 °F 20.7 °F 30.39 in Calm     26% 0.00 in 0.0 W/m2 CLR
14:00 55.0 °F 20.7 °F 30.39 in Calm     26% 0.00 in 0.0 W/m2 CLR
14:10 55.0 °F 19.8 °F 30.37 in Calm     25% 0.00 in 0.0 W/m2 CLR
14:20 55.0 °F 19.8 °F 30.37 in Calm     25% 0.00 in 0.0 W/m2 CLR
14:30 55.0 °F 19.8 °F 30.37 in Calm     25% 0.00 in 0.0 W/m2 CLR
14:40 55.0 °F 19.8 °F 30.37 in Calm     25% 0.00 in 0.0 W/m2 CLR
14:45 55.0 °F 19.8 °F 30.37 in Calm     25% 0.00 in 0.0 W/m2 CLR
14:55 55.0 °F 19.8 °F 30.37 in Calm     25% 0.00 in 0.0 W/m2 CLR
15:00 55.0 °F 19.8 °F 30.37 in Calm     25% 0.00 in 0.0 W/m2 CLR
15:10 57.0 °F 21.5 °F 30.37 in Calm     25% 0.00 in 0.0 W/m2 CLR
15:15 57.0 °F 21.5 °F 30.37 in Calm     25% 0.00 in 0.0 W/m2 CLR
15:20 57.0 °F 21.5 °F 30.37 in Calm     25% 0.00 in 0.0 W/m2 CLR
15:30 57.0 °F 21.5 °F 30.37 in Calm     25% 0.00 in 0.0 W/m2 CLR
15:40 57.0 °F 21.5 °F 30.37 in Calm     25% 0.00 in 0.0 W/m2 CLR
15:45 57.0 °F 21.5 °F 30.37 in Calm     25% 0.00 in 0.0 W/m2 CLR
15:55 57.0 °F 21.5 °F 30.37 in Calm     25% 0.00 in 0.0 W/m2 CLR
16:05 55.9 °F 22.4 °F 30.38 in Calm     27% 0.00 in 0.0 W/m2 CLR
16:15 55.9 °F 22.4 °F 30.38 in Calm     27% 0.00 in 0.0 W/m2 CLR
16:25 55.9 °F 22.4 °F 30.38 in Calm     27% 0.00 in 0.0 W/m2 CLR
16:35 55.9 °F 22.4 °F 30.38 in Calm     27% 0.00 in 0.0 W/m2 CLR
16:40 55.9 °F 22.4 °F 30.38 in Calm     27% 0.00 in 0.0 W/m2 CLR
16:55 55.9 °F 22.4 °F 30.38 in Calm     27% 0.00 in 0.0 W/m2 CLR
17:00 55.9 °F 22.4 °F 30.38 in Calm     27% 0.00 in 0.0 W/m2 CLR
17:10 54.0 °F 24.7 °F 30.38 in Calm     32% 0.00 in 0.0 W/m2 CLR
17:15 54.0 °F 24.7 °F 30.38 in Calm     32% 0.00 in 0.0 W/m2 CLR
17:30 54.0 °F 24.7 °F 30.38 in Calm     32% 0.00 in 0.0 W/m2 CLR
17:40 54.0 °F 24.7 °F 30.38 in Calm     32% 0.00 in 0.0 W/m2 CLR
17:45 54.0 °F 24.7 °F 30.38 in Calm     32% 0.00 in 0.0 W/m2 CLR
18:00 54.0 °F 24.7 °F 30.38 in Calm     32% 0.00 in 0.0 W/m2 CLR
18:10 50.0 °F 30.5 °F 30.40 in Calm     47% 0.00 in 0.0 W/m2 CLR
18:15 50.0 °F 30.5 °F 30.40 in Calm     47% 0.00 in 0.0 W/m2 CLR
18:25 50.0 °F 30.5 °F 30.40 in Calm     47% 0.00 in 0.0 W/m2 CLR
18:30 50.0 °F 30.5 °F 30.40 in Calm     47% 0.00 in 0.0 W/m2 CLR
18:40 50.0 °F 30.5 °F 30.40 in Calm     47% 0.00 in 0.0 W/m2 CLR
18:50 50.0 °F 30.5 °F 30.40 in Calm     47% 0.00 in 0.0 W/m2 CLR
19:00 50.0 °F 30.5 °F 30.40 in Calm     47% 0.00 in 0.0 W/m2 CLR
19:10 46.9 °F 31.6 °F 30.42 in Calm     55% 0.00 in 0.0 W/m2 CLR
19:15 46.9 °F 31.6 °F 30.42 in Calm     55% 0.00 in 0.0 W/m2 CLR
19:25 46.9 °F 31.6 °F 30.42 in Calm     55% 0.00 in 0.0 W/m2 CLR
19:30 46.9 °F 31.6 °F 30.42 in Calm     55% 0.00 in 0.0 W/m2 CLR
19:45 46.9 °F 31.6 °F 30.42 in Calm     55% 0.00 in 0.0 W/m2 CLR
20:05 44.1 °F 33.0 °F 30.44 in Calm     65% 0.00 in 0.0 W/m2 CLR
20:15 44.1 °F 33.0 °F 30.44 in Calm     65% 0.00 in 0.0 W/m2 CLR
20:25 44.1 °F 33.0 °F 30.44 in Calm     65% 0.00 in 0.0 W/m2 CLR
20:45 44.1 °F 33.0 °F 30.44 in Calm     65% 0.00 in 0.0 W/m2 CLR
21:00 44.1 °F 33.0 °F 30.44 in Calm     65% 0.00 in 0.0 W/m2 CLR
21:10 44.1 °F 33.8 °F 30.45 in Calm     67% 0.00 in 0.0 W/m2 CLR
21:30 44.1 °F 33.8 °F 30.45 in Calm     67% 0.00 in 0.0 W/m2 CLR
21:45 44.1 °F 33.8 °F 30.45 in Calm     67% 0.00 in 0.0 W/m2 CLR
22:00 44.1 °F 33.8 °F 30.45 in Calm     67% 0.00 in 0.0 W/m2 CLR
22:10 43.0 °F 32.8 °F 30.46 in Calm     67% 0.00 in 0.0 W/m2 CLR
22:15 43.0 °F 32.8 °F 30.46 in Calm     67% 0.00 in 0.0 W/m2 CLR
22:20 43.0 °F 32.8 °F 30.46 in Calm     67% 0.00 in 0.0 W/m2 CLR
22:30 43.0 °F 32.8 °F 30.46 in Calm     67% 0.00 in 0.0 W/m2 CLR
22:40 43.0 °F 32.8 °F 30.46 in Calm     67% 0.00 in 0.0 W/m2 CLR
22:45 43.0 °F 32.8 °F 30.46 in Calm     67% 0.00 in 0.0 W/m2 CLR
22:55 43.0 °F 32.8 °F 30.46 in Calm     67% 0.00 in 0.0 W/m2 CLR
23:15 43.0 °F 33.9 °F 30.46 in Calm     70% 0.00 in 0.0 W/m2 CLR
23:25 43.0 °F 33.9 °F 30.46 in Calm     70% 0.00 in 0.0 W/m2 CLR
23:35 43.0 °F 33.9 °F 30.46 in Calm     70% 0.00 in 0.0 W/m2 CLR
23:40 43.0 °F 33.9 °F 30.46 in Calm     70% 0.00 in 0.0 W/m2 CLR
23:45 43.0 °F 33.9 °F 30.46 in Calm     70% 0.00 in 0.0 W/m2 CLR
23:55 43.0 °F 33.9 °F 30.46 in Calm     70% 0.00 in 0.0 W/m2 CLR
Lake Mary, FL, USA
Compliments of Weather Underground - 1.5 mb